Kendrick, ID

9:36 PM PDT on September 16, 2014 (GMT -0700)
Linden, Idaho (Cedar Ridge) | Change Station
CLOSE
Current Station
Personal Weather Station
Location: Kendrick, ID
Elevation: 2707 ft
Nearby Weather Stations

Elev 2707 ft 46.69 °N, 116.50 °W | Updated 4 seconds ago

Partly Cloudy
Partly Cloudy
66.9 °F
Feels Like 66.9 °F
N
0.9
Wind Variable Wind from WNW
Gusts 1.0 mph

Today
High -- | Low -- °F
--% Chance of Precip.
Yesterday
High -- | Low -- °F
Precip. -- in
6:25 AM 6:55 PM
Last Quarter, 39% visible
Pressure 29.83 in
Visibility 9.0 miles
Clouds Clear
Dew Point 34 °F
Humidity 30%
Rainfall 0.00 in
Snow Depth 0 in , 0 in , 0 in
UV 0 out of 12
Pollen 6.90 out of 12
Air Quality Not available.
Flu Activity Not available.
METAR KPUW 170253Z AUTO 00000KT 9SM CLR 19/M02 A2987 RMK AO2 SLP101 T01941017 55002

More Conditions Fewer Conditions

Pressure 29.83 in
Visibility 9.0 miles
Clouds Clear
Dew Point 34 °F
Humidity 30%
Rainfall 0.00 in
Snow Depth 0 in , 0 in , 0 in
UV 0 out of 12
Pollen 6.90 out of 12
Air Quality Not available.
Flu Activity Not available.
METAR KPUW 170253Z AUTO 00000KT 9SM CLR 19/M02 A2987 RMK AO2 SLP101 T01941017 55002

More Conditions Fewer Conditions

10-Day Weather Forecast

Almanac

Astronomy

Sep. 16, 2014 Rise Set
Actual Time 6:25 AM PDT 6:55 PM PDT
Civil Twilight 5:55 AM PDT 7:26 PM PDT
Nautical Twilight 5:19 AM PDT 8:02 PM PDT
Astronomical Twilight 4:41 AM PDT 8:39 PM PDT
Moon No Moon Rise 2:38 PM PDT (9/16)
Length of Visible Light 13h 30m
Length of Day
12h 30m
Tomorrow will be 3m 17s shorter.
Last Quarter, 39% of the Moon is Illuminated
Sep 17
Last Quarter
Sep 24
New
Oct 1
First Quarter
Oct 8
Full
Oct 15
Last Quarter

Yesterday's Extremes

State Highs State Lows

Community

WunderPhotos

Upload Photos

1,753,965 photos uploaded!

Nearby

Snow Depth

Station Depth Elevation
Schweitzer Basin 0 in 6090 ft
Stickney Mill 0 in 7430 ft
Swede Peak 0 in 7640 ft
Bogus Basin 0 in 6340 ft
Somsen Ranch 0 in 6800 ft

Earthquake Activity

City Distance Mag. Time & Date
No recent earthquake activity has been reported nearby.
Minimum magnitude displayed is 2.5.

Coastal Water Temperatures

Place Temperature
No Stations Reporting

Nearby Weather Stations